createdAt,value
2022-10-19T00:02:17.583Z,101519.72
2022-10-19T00:05:19.054Z,101515.22
2022-10-19T00:08:20.591Z,101519.63
2022-10-19T00:11:23.689Z,101521.22
2022-10-19T00:14:25.224Z,101523.06
2022-10-19T00:17:26.628Z,101519.63
2022-10-19T00:20:28.058Z,101511.59
2022-10-19T00:23:29.538Z,101516.63
2022-10-19T00:26:31.347Z,101516.63
2022-10-19T00:29:32.821Z,101515.66
2022-10-19T00:32:34.376Z,101508.75
2022-10-19T00:35:40.230Z,101514.06
2022-10-19T00:38:42.202Z,101507.34
2022-10-19T00:41:45.996Z,101507.72
2022-10-19T00:44:47.309Z,101502.16
2022-10-19T00:47:49.993Z,101509.09
2022-10-19T00:50:54.226Z,101504.56
2022-10-19T00:53:56.609Z,101500.81
2022-10-19T00:56:58.939Z,101504.38
2022-10-19T01:00:04.372Z,101518.50
2022-10-19T01:03:06.821Z,101511.44
2022-10-19T01:06:08.710Z,101510.59
2022-10-19T01:09:10.182Z,101501.78
2022-10-19T01:12:26.613Z,101498.56
2022-10-19T01:15:36.046Z,101495.91
2022-10-19T01:18:50.645Z,101481.00
2022-10-19T01:22:13.986Z,101484.69
2022-10-19T01:25:40.681Z,101480.19
2022-10-19T01:29:03.463Z,101480.88
2022-10-19T01:32:23.706Z,101462.38
2022-10-19T01:35:55.557Z,101465.06
2022-10-19T01:39:11.342Z,101457.84
2022-10-19T01:42:19.193Z,101454.72
2022-10-19T01:45:47.285Z,101451.00
2022-10-19T01:48:55.222Z,101450.50
2022-10-19T01:52:00.607Z,101449.00
2022-10-19T01:55:04.290Z,101446.09
2022-10-19T01:58:09.614Z,101436.28
2022-10-19T02:01:13.443Z,101432.88
2022-10-19T02:04:18.950Z,101441.59
2022-10-19T02:07:22.719Z,101439.97
2022-10-19T02:10:25.594Z,101446.34
2022-10-19T02:13:29.167Z,101439.81
2022-10-19T02:16:39.391Z,101449.78
2022-10-19T02:19:41.678Z,101448.16
2022-10-19T02:22:43.485Z,101450.81
2022-10-19T02:25:45.002Z,101440.28
2022-10-19T02:28:47.038Z,101441.22
2022-10-19T02:31:49.095Z,101441.22
2022-10-19T02:34:50.483Z,101438.78
2022-10-19T02:37:51.887Z,101433.41
2022-10-19T02:41:07.122Z,101429.72
2022-10-19T02:44:31.155Z,101430.00
2022-10-19T02:47:38.685Z,101434.50
2022-10-19T02:50:44.042Z,101430.94
2022-10-19T02:53:45.459Z,101428.28
2022-10-19T02:56:46.841Z,101430.94
2022-10-19T02:59:48.589Z,101420.56
2022-10-19T03:02:50.057Z,101417.28
2022-10-19T03:05:52.145Z,101424.16
2022-10-19T03:08:53.572Z,101421.41
2022-10-19T03:11:58.012Z,101411.88
2022-10-19T03:14:59.473Z,101414.91
2022-10-19T03:18:00.868Z,101422.47
2022-10-19T03:21:08.138Z,101411.81
2022-10-19T03:24:09.614Z,101420.00
2022-10-19T03:27:11.066Z,101411.38
2022-10-19T03:30:12.575Z,101415.66
2022-10-19T03:33:14.129Z,101413.78
2022-10-19T03:36:23.329Z,101410.47
2022-10-19T03:39:24.920Z,101416.63
2022-10-19T03:42:26.312Z,101429.88
2022-10-19T03:45:27.726Z,101410.28
2022-10-19T03:48:29.164Z,101416.59
2022-10-19T03:51:31.908Z,101410.34
2022-10-19T03:54:33.298Z,101419.56
2022-10-19T03:57:34.975Z,101424.81
2022-10-19T04:00:36.766Z,101423.94
2022-10-19T04:03:38.258Z,101429.41
2022-10-19T04:06:42.040Z,101426.16
2022-10-19T04:09:43.502Z,101435.84
2022-10-19T04:12:44.918Z,101432.31
2022-10-19T04:15:46.293Z,101431.25
2022-10-19T04:18:47.753Z,101436.56
2022-10-19T04:21:49.438Z,101438.63
2022-10-19T04:24:50.849Z,101442.97
2022-10-19T04:27:52.221Z,101440.44
2022-10-19T04:30:53.717Z,101446.63
2022-10-19T04:33:56.104Z,101439.50
2022-10-19T04:36:59.409Z,101448.91
2022-10-19T04:40:00.943Z,101447.16
2022-10-19T04:43:02.658Z,101436.88
2022-10-19T04:46:18.461Z,101441.56
2022-10-19T04:49:20.426Z,101439.22
2022-10-19T04:52:21.864Z,101443.81
2022-10-19T04:55:23.296Z,101447.22
2022-10-19T04:58:24.790Z,101446.34
2022-10-19T05:01:28.300Z,101443.69
2022-10-19T05:04:29.704Z,101432.13
2022-10-19T05:07:31.325Z,101427.06
2022-10-19T05:10:33.000Z,101413.75
2022-10-19T05:13:35.180Z,101426.88
2022-10-19T05:16:36.658Z,101422.53
2022-10-19T05:19:38.071Z,101417.78
2022-10-19T05:22:39.998Z,101412.69
2022-10-19T05:25:41.384Z,101410.75
2022-10-19T05:28:47.019Z,101411.47
2022-10-19T05:31:48.543Z,101404.41
2022-10-19T05:34:49.952Z,101415.84
2022-10-19T05:37:55.178Z,101408.59
2022-10-19T05:40:56.556Z,101414.03
2022-10-19T05:44:00.335Z,101407.84
2022-10-19T05:47:02.161Z,101406.97
2022-10-19T05:50:03.874Z,101406.09
2022-10-19T05:53:05.252Z,101404.31
2022-10-19T05:56:08.873Z,101407.06
2022-10-19T05:59:15.310Z,101407.19
2022-10-19T06:02:16.696Z,101409.00
2022-10-19T06:05:18.082Z,101415.19
2022-10-19T06:08:21.042Z,101412.56
2022-10-19T06:11:25.650Z,101405.44
2022-10-19T06:14:27.042Z,101414.13
2022-10-19T06:17:29.262Z,101414.16
2022-10-19T06:20:30.845Z,101419.75
2022-10-19T06:23:33.447Z,101412.78
2022-10-19T06:26:35.704Z,101410.88
2022-10-19T06:29:37.229Z,101412.91
2022-10-19T06:32:38.728Z,101418.00
2022-10-19T06:35:42.310Z,101419.13
2022-10-19T06:38:44.646Z,101421.84
2022-10-19T06:41:46.138Z,101418.47
2022-10-19T06:44:53.748Z,101418.69
2022-10-19T06:47:55.198Z,101415.91
2022-10-19T06:50:58.220Z,101418.56
2022-10-19T06:54:00.119Z,101421.03
2022-10-19T06:57:01.539Z,101428.81
2022-10-19T07:00:04.650Z,101430.72
2022-10-19T07:03:06.058Z,101430.72
2022-10-19T07:06:10.019Z,101434.16
2022-10-19T07:09:11.397Z,101428.78
2022-10-19T07:12:12.829Z,101429.63
2022-10-19T07:15:14.334Z,101438.50
2022-10-19T07:18:15.959Z,101432.28
2022-10-19T07:21:18.421Z,101436.53
2022-10-19T07:24:20.041Z,101440.97
2022-10-19T07:27:21.641Z,101444.53
2022-10-19T07:30:23.591Z,101451.38
2022-10-19T07:33:25.206Z,101461.78
2022-10-19T07:36:28.168Z,101460.72
2022-10-19T07:39:29.578Z,101462.53
2022-10-19T07:42:31.031Z,101461.88
2022-10-19T07:45:32.965Z,101457.47
2022-10-19T07:48:35.240Z,101462.63
2022-10-19T07:51:38.223Z,101462.34
2022-10-19T07:54:39.594Z,101466.06
2022-10-19T07:57:43.638Z,101456.91
2022-10-19T08:00:46.395Z,101450.94
2022-10-19T08:07:10.165Z,101451.72
2022-10-19T08:10:11.540Z,101448.81
2022-10-19T08:13:12.919Z,101443.50
2022-10-19T08:16:26.528Z,101448.69
2022-10-19T08:19:27.928Z,101448.50
2022-10-19T08:22:29.384Z,101437.88
2022-10-19T08:25:30.816Z,101441.25
2022-10-19T08:28:32.275Z,101445.59
2022-10-19T08:31:33.983Z,101450.78
2022-10-19T08:34:35.614Z,101444.03
2022-10-19T08:37:44.768Z,101450.88
2022-10-19T08:40:47.330Z,101446.19
2022-10-19T08:44:10.383Z,101438.06
2022-10-19T08:47:23.530Z,101439.81
2022-10-19T08:50:36.284Z,101430.53
2022-10-19T08:53:41.016Z,101441.84
2022-10-19T08:56:51.790Z,101430.13
2022-10-19T09:00:26.691Z,101435.50
2022-10-19T09:03:59.060Z,101441.38
2022-10-19T09:07:09.623Z,101436.06
2022-10-19T09:10:14.618Z,101436.25
2022-10-19T09:13:17.604Z,101433.63
2022-10-19T09:16:19.947Z,101427.47
2022-10-19T09:19:25.876Z,101429.94
2022-10-19T09:22:34.964Z,101433.41
2022-10-19T09:25:38.544Z,101419.88
2022-10-19T09:28:47.234Z,101414.63
2022-10-19T09:31:55.488Z,101416.38
2022-10-19T09:35:02.206Z,101424.97
2022-10-19T09:38:06.703Z,101421.31
2022-10-19T09:41:21.237Z,101422.09
2022-10-19T09:44:23.983Z,101413.97
2022-10-19T09:47:33.458Z,101414.78
2022-10-19T09:50:35.146Z,101413.28
2022-10-19T09:53:36.666Z,101413.91
2022-10-19T09:56:40.551Z,101413.06
2022-10-19T09:59:42.333Z,101411.22
2022-10-19T10:02:50.002Z,101412.75
2022-10-19T10:05:52.449Z,101409.00
2022-10-19T10:08:58.920Z,101404.47
2022-10-19T10:12:00.605Z,101404.28
2022-10-19T10:15:05.943Z,101404.03
2022-10-19T10:18:13.039Z,101403.88
2022-10-19T10:21:25.437Z,101408.22
2022-10-19T10:24:30.447Z,101395.06
2022-10-19T10:27:35.005Z,101394.94
2022-10-19T10:30:37.445Z,101389.44
2022-10-19T10:33:46.432Z,101394.63
2022-10-19T10:36:53.800Z,101390.19
2022-10-19T10:40:00.321Z,101394.31
2022-10-19T10:43:09.103Z,101390.22
2022-10-19T10:46:19.913Z,101380.41
2022-10-19T10:49:25.535Z,101383.53
2022-10-19T10:52:31.123Z,101386.34
2022-10-19T10:55:34.128Z,101381.13
2022-10-19T10:58:43.516Z,101379.13
2022-10-19T11:01:59.658Z,101379.13
2022-10-19T11:05:26.461Z,101377.03
2022-10-19T11:08:35.915Z,101374.94
2022-10-19T11:11:44.938Z,101371.06
2022-10-19T11:14:51.109Z,101359.53
2022-10-19T11:18:24.860Z,101361.16
2022-10-19T11:21:36.180Z,101350.34
2022-10-19T11:24:59.718Z,101348.75
2022-10-19T11:28:19.384Z,101339.44
2022-10-19T11:31:33.174Z,101330.56
2022-10-19T11:34:56.155Z,101328.38
2022-10-19T11:38:21.357Z,101328.03
2022-10-19T11:41:47.540Z,101319.41
2022-10-19T11:45:08.346Z,101311.03
2022-10-19T11:48:15.777Z,101298.25
2022-10-19T11:51:51.913Z,101301.28
2022-10-19T11:55:30.361Z,101295.91
2022-10-19T11:58:39.844Z,101288.78
2022-10-19T12:01:53.435Z,101293.13
2022-10-19T12:05:04.420Z,101288.63
2022-10-19T12:08:27.795Z,101294.88
2022-10-19T12:11:47.748Z,101293.66
2022-10-19T12:14:54.449Z,101301.81
2022-10-19T12:18:06.896Z,101298.34
2022-10-19T12:21:30.397Z,101296.75
2022-10-19T12:24:34.058Z,101293.81
2022-10-19T12:27:40.008Z,101289.19
2022-10-19T12:30:41.491Z,101279.34
2022-10-19T12:33:51.829Z,101279.25
2022-10-19T12:37:18.085Z,101275.81
2022-10-19T12:40:28.057Z,101274.00
2022-10-19T12:43:51.450Z,101262.53
2022-10-19T12:47:01.196Z,101265.13
2022-10-19T12:50:02.778Z,101256.44
2022-10-19T12:53:04.225Z,101248.72
2022-10-19T12:56:10.013Z,101243.25
2022-10-19T12:59:23.988Z,101237.06
2022-10-19T13:02:29.733Z,101227.56
2022-10-19T13:05:33.415Z,101226.25
2022-10-19T13:08:53.167Z,101219.69
2022-10-19T13:12:14.784Z,101215.44
2022-10-19T13:15:37.359Z,101211.63
2022-10-19T13:19:14.176Z,101209.59
2022-10-19T13:22:28.520Z,101205.03
2022-10-19T13:25:31.877Z,101205.84
2022-10-19T13:28:37.732Z,101195.53
2022-10-19T13:31:39.488Z,101188.72
2022-10-19T13:34:41.142Z,101190.75
2022-10-19T13:37:43.635Z,101188.50
2022-10-19T13:40:51.224Z,101185.13
2022-10-19T13:44:15.208Z,101176.00
2022-10-19T13:47:32.533Z,101168.38
2022-10-19T13:50:42.990Z,101162.44
2022-10-19T13:54:07.490Z,101151.13
2022-10-19T13:57:20.630Z,101151.06
2022-10-19T14:00:24.604Z,101153.25
2022-10-19T14:03:38.199Z,101154.41
2022-10-19T14:06:50.502Z,101144.00
2022-10-19T14:10:14.586Z,101138.03
2022-10-19T14:13:16.087Z,101134.38
2022-10-19T14:16:20.900Z,101132.13
2022-10-19T14:19:47.131Z,101128.50
2022-10-19T14:22:48.522Z,101122.00
2022-10-19T14:26:03.724Z,101124.31
2022-10-19T14:29:05.768Z,101116.75
2022-10-19T14:32:09.449Z,101121.16
2022-10-19T14:35:28.411Z,101110.81
2022-10-19T14:38:35.130Z,101112.38
2022-10-19T14:41:37.064Z,101103.44
2022-10-19T14:44:43.906Z,101102.06
2022-10-19T14:47:59.305Z,101106.97
2022-10-19T14:51:01.165Z,101099.78
2022-10-19T14:54:11.191Z,101094.25
2022-10-19T14:57:17.457Z,101092.94
2022-10-19T15:00:21.590Z,101091.03
2022-10-19T15:03:27.431Z,101088.78
2022-10-19T15:06:35.395Z,101088.06
2022-10-19T15:09:48.247Z,101084.94
2022-10-19T15:12:52.325Z,101081.00
2022-10-19T15:15:54.748Z,101079.94
2022-10-19T15:18:56.343Z,101092.56
2022-10-19T15:22:21.053Z,101097.50
2022-10-19T15:25:32.652Z,101084.78
2022-10-19T15:28:40.703Z,101087.38
2022-10-19T15:31:43.186Z,101080.06
2022-10-19T15:34:46.024Z,101062.34
2022-10-19T15:37:50.269Z,101059.13
2022-10-19T15:40:59.893Z,101060.06
2022-10-19T15:44:08.268Z,101051.13
2022-10-19T15:47:15.759Z,101052.63
2022-10-19T15:50:36.405Z,101054.56
2022-10-19T15:53:37.809Z,101056.53
2022-10-19T15:56:40.059Z,101061.56
2022-10-19T15:59:41.504Z,101059.22
2022-10-19T16:02:43.316Z,101054.34
2022-10-19T16:05:44.985Z,101046.97
2022-10-19T16:08:46.868Z,101050.00
2022-10-19T16:11:48.587Z,101047.22
2022-10-19T16:14:50.505Z,101056.38
2022-10-19T16:18:00.255Z,101049.75
2022-10-19T16:21:01.664Z,101049.19
2022-10-19T16:24:03.558Z,101052.19
2022-10-19T16:27:05.910Z,101051.63
2022-10-19T16:30:08.129Z,101055.34
2022-10-19T16:33:09.544Z,101050.25
2022-10-19T16:36:11.302Z,101052.97
2022-10-19T16:39:12.832Z,101050.47
2022-10-19T16:42:14.236Z,101047.94
2022-10-19T16:45:15.757Z,101041.19
2022-10-19T16:48:19.824Z,101038.00
2022-10-19T16:51:36.174Z,101039.16
2022-10-19T16:54:37.554Z,101049.50
2022-10-19T16:57:38.987Z,101045.47
2022-10-19T17:00:40.749Z,101051.16
2022-10-19T17:03:43.806Z,101045.41
2022-10-19T17:06:45.221Z,101049.31
2022-10-19T17:09:49.794Z,101054.78
2022-10-19T17:12:53.856Z,101051.31
2022-10-19T17:15:55.259Z,101052.28
2022-10-19T17:18:58.224Z,101041.72
2022-10-19T17:22:01.714Z,101050.75
2022-10-19T17:25:03.235Z,101045.56
2022-10-19T17:28:04.825Z,101040.47
2022-10-19T17:31:09.118Z,101040.00
2022-10-19T17:34:10.590Z,101042.06
2022-10-19T17:37:11.979Z,101057.19
2022-10-19T17:40:13.398Z,101056.50
2022-10-19T17:43:14.835Z,101056.63
2022-10-19T17:46:18.274Z,101067.25
2022-10-19T17:49:19.676Z,101056.22
2022-10-19T17:52:21.229Z,101059.13
2022-10-19T17:58:32.043Z,101059.53
2022-10-19T18:01:34.083Z,101051.88
2022-10-19T18:07:38.228Z,101054.72
2022-10-19T18:10:39.921Z,101060.38
2022-10-19T18:13:42.007Z,101055.13
2022-10-19T18:16:46.203Z,101052.84
2022-10-19T18:19:47.775Z,101060.78
2022-10-19T18:22:49.207Z,101050.19
2022-10-19T18:25:54.364Z,101055.63
2022-10-19T18:28:57.672Z,101055.13
2022-10-19T18:31:59.127Z,101063.41
2022-10-19T18:35:00.566Z,101060.31
2022-10-19T18:38:02.789Z,101056.13
2022-10-19T18:41:07.264Z,101049.94
2022-10-19T18:44:12.093Z,101047.09
2022-10-19T18:47:13.529Z,101046.19
2022-10-19T18:50:17.337Z,101045.50
2022-10-19T18:53:19.117Z,101040.91
2022-10-19T18:56:22.338Z,101045.50
2022-10-19T18:59:23.920Z,101028.75
2022-10-19T19:02:35.250Z,101032.28
2022-10-19T19:05:43.875Z,101028.97
2022-10-19T19:08:45.657Z,101027.16
2022-10-19T19:11:47.212Z,101018.47
2022-10-19T19:14:48.673Z,101023.84
2022-10-19T19:17:53.859Z,101021.19
2022-10-19T19:20:55.293Z,101014.16
2022-10-19T19:23:59.124Z,101020.56
2022-10-19T19:27:00.572Z,101019.59
2022-10-19T19:30:04.601Z,101016.13
2022-10-19T19:33:06.008Z,101014.38
2022-10-19T19:36:08.725Z,101010.19
2022-10-19T19:39:10.116Z,101000.59
2022-10-19T19:42:11.677Z,101000.63
2022-10-19T19:45:13.094Z,100995.38
2022-10-19T19:48:14.620Z,100986.66
2022-10-19T19:51:19.128Z,100984.91
2022-10-19T19:54:22.812Z,100984.13
2022-10-19T19:57:24.454Z,100975.28
2022-10-19T20:00:25.856Z,100972.78
2022-10-19T20:03:27.245Z,100982.41
2022-10-19T20:06:29.234Z,100971.69
2022-10-19T20:09:30.894Z,100977.03
2022-10-19T20:12:32.292Z,100974.38
2022-10-19T20:15:34.157Z,100973.69
2022-10-19T20:18:35.585Z,100967.59
2022-10-19T20:21:37.437Z,100964.16
2022-10-19T20:24:38.827Z,100967.47
2022-10-19T20:27:40.242Z,100976.50
2022-10-19T20:30:44.362Z,100976.25
2022-10-19T20:33:47.439Z,100970.25
2022-10-19T20:36:48.932Z,100964.00
2022-10-19T20:39:50.385Z,100964.44
2022-10-19T20:42:51.846Z,100960.91
2022-10-19T20:45:53.228Z,100964.50
2022-10-19T20:49:00.698Z,100959.19
2022-10-19T20:52:02.522Z,100969.78
2022-10-19T20:55:05.048Z,100957.50
2022-10-19T20:58:06.430Z,100963.56
2022-10-19T21:01:16.141Z,100962.84
2022-10-19T21:04:18.138Z,100958.47
2022-10-19T21:07:19.510Z,100959.31
2022-10-19T21:10:20.908Z,100947.91
2022-10-19T21:13:22.284Z,100960.28
2022-10-19T21:16:27.417Z,100964.84
2022-10-19T21:19:29.572Z,100953.34
2022-10-19T21:22:34.447Z,100954.25
2022-10-19T21:25:38.560Z,100963.13
2022-10-19T21:28:41.678Z,100960.44
2022-10-19T21:31:47.963Z,100958.19
2022-10-19T21:34:50.502Z,100959.78
2022-10-19T21:37:51.931Z,100949.09
2022-10-19T21:40:57.990Z,100931.44
2022-10-19T21:43:59.905Z,100932.50
2022-10-19T21:47:01.387Z,100933.56
2022-10-19T21:50:02.940Z,100933.28
2022-10-19T21:53:04.363Z,100933.66
2022-10-19T21:56:06.050Z,100923.75
2022-10-19T21:59:07.639Z,100916.88
2022-10-19T22:02:09.070Z,100921.44
2022-10-19T22:05:10.513Z,100917.00
2022-10-19T22:08:11.918Z,100918.84
2022-10-19T22:11:14.328Z,100917.81
2022-10-19T22:14:16.350Z,100926.84
2022-10-19T22:17:17.763Z,100909.84
2022-10-19T22:20:19.246Z,100912.47
2022-10-19T22:23:20.682Z,100912.47
2022-10-19T22:26:28.315Z,100909.28
2022-10-19T22:29:29.718Z,100897.84
2022-10-19T22:32:31.192Z,100894.56
2022-10-19T22:35:32.706Z,100893.78
2022-10-19T22:38:34.718Z,100884.59
2022-10-19T22:41:36.119Z,100883.09
2022-10-19T22:44:37.581Z,100878.44
2022-10-19T22:47:38.983Z,100873.22
2022-10-19T22:50:40.416Z,100858.19
2022-10-19T22:53:41.953Z,100854.91
2022-10-19T22:56:43.591Z,100839.16
2022-10-19T22:59:44.974Z,100841.00
2022-10-19T23:02:47.406Z,100840.94
2022-10-19T23:05:48.778Z,100842.66
2022-10-19T23:08:50.315Z,100841.81
2022-10-19T23:11:51.809Z,100842.91
2022-10-19T23:14:53.195Z,100842.00
2022-10-19T23:17:54.910Z,100843.78
2022-10-19T23:20:58.184Z,100834.88
2022-10-19T23:23:59.601Z,100825.66
2022-10-19T23:27:01.095Z,100814.94
2022-10-19T23:30:03.951Z,100813.19
2022-10-19T23:33:05.423Z,100801.97
2022-10-19T23:36:10.039Z,100805.44
2022-10-19T23:39:11.499Z,100804.06
2022-10-19T23:42:12.879Z,100805.81
2022-10-19T23:45:15.179Z,100803.03
2022-10-19T23:48:16.631Z,100796.84
2022-10-19T23:51:20.727Z,100798.59
2022-10-19T23:54:22.485Z,100797.78
2022-10-19T23:57:23.901Z,100804.81
